Terminal Aerodrome Forecast
Issued by NWS

Current Version | Previous Version | Graphics & Text | Print | Product List | Glossary On
Versions: 1 2 3 4 5 6 7 8 9 10 11 12 13 14 15 16 17 18 19 20 21 22 23 24 25 26
000
FTUS41 KRLX 211735
TAFCKB
TAF
KCKB 211735Z 2118/2218 15003KT P6SM FEW045 OVC200
     FM220000 00000KT P6SM BKN080
     FM221700 11005KT P6SM -RA BKN070=

USA.gov is the U.S. government's official web portal to all federal, state and local government web resources and services.